Bei Facebook empfehlenBei Twitter postenGoogle plusPinterest

Das Wetter im Erzgebirge am 17.01.2015

Wetter und Klima am 17.01.2015 Holzhau im Erzgebirge (630m ü.NN)
Letzte gemessene Temperatur und Uhrzeit der Messung23:45:00 Uhr-1.60 °C
Temperatur (Maximum / Höchstwert) und Uhrzeit der Messung05:30:00 Uhr2.20 °C
Temperatur (Minimum / Tiefstwert) und Uhrzeit der Messung23:15:00-2.20 °C
Errechneter Absolutwert der Temperaturschwankungen zwischen Tmin und Tmax des Tages4.40 K
Errechnete Tagesmitteltemperatur0.49063 °C
Gesamt - Niederschlag des Tages (in flüssiger Form)1.04 Liter / m²
Luftdruck (Maximum / Höchstwert) und Zeitpunkt der Messung23:30:00 Uhr1014.20 hPa
Luftdruck (Minimum / Tiefstwert) und Zeitpunkt der Messung01:15:00 Uhr1003.30 hPa
Errechneter Absolutwert der Luftdruckschwankungen des Tages10.90 hPa
Höchste gemessene Windgeschwindigkeit und Uhrzeit der Messung13:45:00 Uhr3.24 km/h
Errechnete Windhäufigkeit in Relation zu den Messwerten des Tages1.04167 %
Niedrigste Windkühle (Windchill) und Zeitpunkt der Messung23:15:00 Uhr-2.20 °C
Taupunkt (Maximum / Höchstwert) und Uhrzeit der Messung05:30:00 Uhr1.00 °C
Taupunkt (Minimum / Tiefstwert) und Uhrzeit der Messung23:15:00-3.50 °C
Anzahl der automatisch eingelesenen Messwerte 96

Detaillierte Wetter- und Klima- Messwerte für den 17.01.2015 in Holzhau im Erzgebirge (630m ü.NN)
ZeitTemperaturLuftdruckRel. LuftfeuchteWindWindrichtungWindchillTaupunktNiederschlag l/m²
23:45:00-1.60 °C1014.10 hPa93.00 %-2.70 °C1.04
23:30:00-1.90 °C1014.20 hPa93.00 %-3.00 °C1.04
23:15:00-2.20 °C1014.00 hPa92.00 %-3.50 °C1.04
23:00:00-2.10 °C1013.80 hPa92.00 %-3.40 °C1.04
22:45:00-1.60 °C1013.70 hPa93.00 %-2.70 °C1.04
22:30:00-1.10 °C1013.70 hPa93.00 %-2.20 °C1.04
22:15:00-0.90 °C1013.60 hPa93.00 %-2.00 °C1.04
22:00:00-0.70 °C1013.70 hPa93.00 %-1.80 °C1.04
21:45:00-0.70 °C1013.60 hPa93.00 %-1.80 °C1.04
21:30:00-0.80 °C1013.60 hPa93.00 %-1.90 °C1.04
21:15:00-0.80 °C1013.50 hPa93.00 %-1.90 °C1.04
21:00:00-0.60 °C1013.50 hPa93.00 %-1.70 °C1.04
20:45:00-0.50 °C1013.30 hPa93.00 %-1.60 °C1.04
20:30:00-0.40 °C1013.50 hPa93.00 %-1.50 °C1.04
20:15:00-0.40 °C1013.50 hPa93.00 %-1.50 °C1.04
20:00:00-0.40 °C1013.20 hPa93.00 %-1.50 °C1.04
19:45:00-0.40 °C1012.90 hPa93.00 %-1.50 °C1.04
19:30:00-0.40 °C1012.90 hPa93.00 %-1.50 °C1.04
19:15:00-0.50 °C1012.90 hPa93.00 %-1.60 °C1.04
19:00:00-0.50 °C1012.70 hPa92.00 %-1.80 °C1.04
18:45:00-0.30 °C1012.20 hPa92.00 %-1.60 °C1.04
18:30:00-0.10 °C1012.30 hPa92.00 %-1.40 °C1.04
18:15:000.10 °C1012.40 hPa92.00 %-1.00 °C1.04
18:00:000.10 °C1012.20 hPa92.00 %-1.00 °C1.04
17:45:000.10 °C1012.30 hPa92.00 %-1.00 °C1.04
17:30:000.30 °C1012.30 hPa92.00 %-0.80 °C1.04
17:15:000.30 °C1012.20 hPa92.00 %-0.80 °C1.04
17:00:000.20 °C1011.90 hPa92.00 %-0.90 °C1.04
16:45:000.40 °C1011.80 hPa93.00 %-0.60 °C1.04
16:30:000.50 °C1011.80 hPa93.00 %-0.50 °C1.04
16:15:000.80 °C1011.80 hPa93.00 %-0.20 °C1.04
16:00:000.90 °C1011.70 hPa93.00 %-0.10 °C1.04
15:45:001.00 °C1011.50 hPa93.00 %0.00 °C1.04
15:30:001.30 °C1011.00 hPa93.00 %0.30 °C1.04
15:15:001.40 °C1011.10 hPa93.00 %0.40 °C1.04
15:00:001.50 °C1011.00 hPa93.00 %0.50 °C1.04
14:45:001.40 °C1011.10 hPa93.00 %0.40 °C1.04
14:30:001.30 °C1010.90 hPa93.00 %0.30 °C1.04
14:15:001.30 °C1010.70 hPa93.00 %0.30 °C1.04
14:00:001.40 °C1010.70 hPa93.00 %0.40 °C1.04
13:45:001.60 °C1010.80 hPa93.00 %3.24 km/hWSW1.60 °C0.60 °C1.04
13:30:001.60 °C1010.40 hPa93.00 %0.60 °C1.04
13:15:001.30 °C1010.60 hPa93.00 %0.30 °C1.04
13:00:001.10 °C1010.60 hPa93.00 %0.10 °C1.04
12:45:001.00 °C1010.60 hPa93.00 %0.00 °C1.04
12:30:001.10 °C1010.40 hPa93.00 %0.10 °C1.04
12:15:001.10 °C1010.00 hPa93.00 %0.10 °C1.04
12:00:001.00 °C1010.00 hPa93.00 %0.00 °C1.04
11:45:001.00 °C1009.80 hPa93.00 %0.00 °C1.04
11:30:000.90 °C1009.90 hPa93.00 %-0.10 °C1.04
11:15:000.80 °C1009.80 hPa93.00 %-0.20 °C1.04
11:00:000.80 °C1009.70 hPa93.00 %-0.20 °C1.04
10:45:000.80 °C1009.30 hPa93.00 %-0.20 °C1.04
10:30:000.70 °C1009.30 hPa93.00 %-0.30 °C1.04
10:15:000.60 °C1009.20 hPa93.00 %-0.40 °C0.52
10:00:000.40 °C1009.10 hPa93.00 %-0.60 °C0.52
09:45:000.30 °C1009.10 hPa93.00 %-0.70 °C0.52
09:30:000.30 °C1008.80 hPa93.00 %-0.70 °C0.52
09:15:000.30 °C1008.50 hPa93.00 %-0.70 °C0.52
09:00:000.30 °C1008.00 hPa93.00 %-0.70 °C0.52
08:45:000.40 °C1007.80 hPa93.00 %-0.60 °C0.52
08:30:000.40 °C1007.70 hPa93.00 %-0.60 °C0.52
08:15:000.50 °C1007.60 hPa93.00 %-0.50 °C0.52
08:00:000.50 °C1007.20 hPa93.00 %-0.50 °C0.52
07:45:000.60 °C1006.90 hPa93.00 %-0.40 °C0.52
07:30:000.70 °C1006.80 hPa93.00 %-0.30 °C 
07:15:000.90 °C1006.70 hPa92.00 %-0.20 °C 
07:00:001.20 °C1006.20 hPa92.00 %0.00 °C 
06:45:001.50 °C1006.20 hPa92.00 %0.30 °C 
06:30:001.60 °C1005.60 hPa92.00 %0.40 °C 
06:15:001.80 °C1005.40 hPa92.00 %0.60 °C 
06:00:001.90 °C1005.10 hPa92.00 %0.70 °C 
05:45:002.10 °C1004.90 hPa92.00 %0.90 °C 
05:30:002.20 °C1005.00 hPa92.00 %1.00 °C 
05:15:002.10 °C1004.90 hPa92.00 %0.90 °C 
05:00:001.60 °C1004.80 hPa92.00 %0.40 °C 
04:45:001.10 °C1004.30 hPa92.00 %-0.10 °C 
04:30:000.90 °C1004.00 hPa92.00 %-0.20 °C 
04:15:000.90 °C1004.40 hPa92.00 %-0.20 °C 
04:00:000.80 °C1004.40 hPa92.00 %-0.30 °C 
03:45:000.60 °C1004.10 hPa92.00 %-0.50 °C 
03:30:000.40 °C1004.00 hPa92.00 %-0.70 °C 
03:15:000.30 °C1004.00 hPa92.00 %-0.80 °C 
03:00:000.20 °C1003.90 hPa92.00 %-0.90 °C 
02:45:000.10 °C1004.00 hPa91.00 %-1.20 °C 
02:30:000.30 °C1003.60 hPa91.00 %-1.00 °C 
02:15:000.50 °C1003.60 hPa91.00 %-0.80 °C 
02:00:000.70 °C1003.70 hPa91.00 %-0.60 °C 
01:45:000.80 °C1003.50 hPa91.00 %-0.50 °C 
01:30:000.80 °C1003.60 hPa91.00 %-0.50 °C 
01:15:000.90 °C1003.30 hPa91.00 %-0.40 °C 
01:00:000.90 °C1003.50 hPa91.00 %-0.40 °C 
00:45:001.00 °C1003.70 hPa91.00 %-0.30 °C 
00:30:001.10 °C1003.40 hPa91.00 %-0.20 °C 
00:15:001.20 °C1003.50 hPa91.00 %-0.10 °C 
00:00:001.20 °C1004.20 hPa91.00 %-0.10 °C 

Permanenter Link zu dieser Seite: Wetter im Erzgebirge am 17.01.2015
Performance-Info: Die Erstellung der Seite / Statistik(en) / Tabelle(n) erforderte 5 Datenbankserver-Abfrage(n) und dauerte 101 Millisekunden. (Dieser Messwert ist von der Gesamt-Auslastung des Servers abhängig.)
Erzgebirge - Wetter | Erzgebirge - Wetter (Mobilgeräte) | Komplette Klimadatenbank